Time;durP1;ratioP1;P1;durP2;ratioP2;P2;SDS_P1;SDS_P2;PMS_P1;PMS_P2;Temp;Humidity;BMP_temperature;BMP_pressure;BME280_temperature;BME280_humidity;BME280_pressure;Samples;Min_cycle;Max_cycle;Signal;HPM_P1;HPM_P2
2022/11/11 00:00:16;;;;;;;4.47;2.08;;;;;;;21.08;45.79;102327.50;4213969;28;20105;-70
2022/11/11 00:02:17;;;;;;;3.38;1.70;;;;;;;21.15;45.60;102347.66;4214336;28;20040;-69
2022/11/11 00:04:19;;;;;;;4.07;2.10;;;;;;;20.69;45.70;102263.28;4213820;28;20044;-69
2022/11/11 00:06:20;;;;;;;4.47;2.55;;;;;;;21.15;45.82;102344.88;4213913;28;20036;-69
2022/11/11 00:08:24;;;;;;;3.58;1.85;;;;;;;21.15;46.03;102344.03;4214189;28;20044;-69
2022/11/11 00:10:27;;;;;;;4.20;1.98;;;;;;;21.10;45.91;102344.78;4213819;28;20075;-69
2022/11/11 00:12:29;;;;;;;6.60;1.90;;;;;;;21.07;45.85;102336.91;4213859;28;20040;-69
2022/11/11 00:14:33;;;;;;;4.93;2.25;;;;;;;21.05;45.81;102333.53;4213778;28;20079;-69
2022/11/11 00:25:53;;;;;;;6.53;2.15;;;;;;;21.16;45.86;102340.13;4216801;28;20109;-69
2022/11/11 00:27:55;;;;;;;5.35;2.25;;;;;;;20.91;45.76;102299.59;4217008;28;20043;-69
2022/11/11 00:29:56;;;;;;;3.72;1.92;;;;;;;21.14;45.80;102332.06;4216693;28;20039;-69
2022/11/11 00:34:19;;;;;;;4.03;2.33;;;;;;;21.13;46.09;102316.44;4215743;28;20081;-69
2022/11/11 00:36:24;;;;;;;4.03;2.25;;;;;;;21.04;46.10;102304.88;4216133;28;20044;-69
2022/11/11 00:40:48;;;;;;;4.63;2.10;;;;;;;21.14;45.92;102329.25;4216676;28;20061;-69
2022/11/11 00:42:49;;;;;;;4.53;1.70;;;;;;;21.13;45.76;102327.59;4216675;28;20040;-69
2022/11/11 00:44:54;;;;;;;3.33;1.85;;;;;;;21.14;46.11;102326.47;4216133;28;20273;-69
2022/11/11 00:51:40;;;;;;;4.03;1.85;;;;;;;20.78;45.92;102260.94;4216834;28;20145;-69
2022/11/11 00:53:44;;;;;;;4.30;2.10;;;;;;;21.09;45.88;102331.13;4216728;28;20036;-69
2022/11/11 00:55:45;;;;;;;3.83;2.13;;;;;;;21.05;45.94;102311.28;4216231;28;20265;-69
2022/11/11 00:57:46;;;;;;;3.20;1.70;;;;;;;20.97;45.80;102303.31;4216241;28;20031;-69
2022/11/11 00:59:47;;;;;;;4.32;2.20;;;;;;;20.99;46.01;102312.28;4216229;28;20040;-69
2022/11/11 01:01:49;;;;;;;4.32;2.00;;;;;;;21.09;46.14;102329.16;4215838;28;20044;-69
2022/11/11 01:03:50;;;;;;;2.75;1.88;;;;;;;20.98;46.17;102299.44;4215712;28;20437;-69
2022/11/11 01:05:54;;;;;;;2.63;1.95;;;;;;;21.11;45.90;102321.41;4213440;28;20457;-70
2022/11/11 01:07:55;;;;;;;4.18;1.73;;;;;;;21.12;45.80;102311.09;4211077;28;20088;-69
2022/11/11 01:09:56;;;;;;;4.13;2.38;;;;;;;20.90;46.13;102280.38;4222636;28;20023;-68
2022/11/11 01:12:00;;;;;;;3.50;2.00;;;;;;;21.11;46.07;102315.84;4218643;28;20089;-68
2022/11/11 01:14:02;;;;;;;7.40;2.88;;;;;;;21.11;45.99;102313.06;4211338;28;20077;-69
2022/11/11 01:16:05;;;;;;;4.05;1.92;;;;;;;21.11;45.89;102304.69;4199842;28;20173;-68
2022/11/11 01:18:09;;;;;;;5.18;2.65;;;;;;;21.11;45.94;102303.88;4204166;28;20453;-68
2022/11/11 01:20:10;;;;;;;5.07;2.00;;;;;;;20.99;45.86;102281.66;4208630;28;20097;-69
2022/11/11 01:22:14;;;;;;;4.05;2.15;;;;;;;21.11;46.02;102299.13;4212336;28;20445;-70
2022/11/11 01:24:16;;;;;;;6.78;2.40;;;;;;;21.12;46.05;102302.75;4218923;28;20044;-68
2022/11/11 01:26:27;;;;;;;5.20;2.03;;;;;;;21.11;45.86;102293.56;4219049;28;20043;-67
2022/11/11 01:28:32;;;;;;;4.22;2.05;;;;;;;21.11;46.14;102299.13;4219015;28;20093;-70
2022/11/11 01:30:34;;;;;;;3.38;2.05;;;;;;;21.12;45.94;102295.28;4215126;28;20043;-69
2022/11/11 01:32:38;;;;;;;4.95;2.42;;;;;;;21.08;45.87;102294.09;4211999;28;20036;-69
2022/11/11 01:34:39;;;;;;;3.85;2.00;;;;;;;21.11;45.79;102301.91;4214725;28;20036;-69
2022/11/11 01:36:40;;;;;;;2.72;1.90;;;;;;;20.99;46.07;102284.44;4215247;28;20032;-70
2022/11/11 01:38:42;;;;;;;4.72;2.42;;;;;;;21.11;45.90;102293.56;4214970;28;20044;-69
2022/11/11 01:40:46;;;;;;;4.25;2.70;;;;;;;21.12;45.94;102299.97;4209930;27;20036;-70
2022/11/11 01:42:53;;;;;;;5.68;3.03;;;;;;;21.01;45.98;102282.25;4198114;28;20037;-70
2022/11/11 01:44:55;;;;;;;4.53;2.90;;;;;;;21.10;46.13;102291.88;4209843;28;20109;-69
2022/11/11 01:47:03;;;;;;;3.78;2.53;;;;;;;21.10;45.91;102300.25;4215393;28;20040;-70
2022/11/11 01:49:28;;;;;;;4.63;2.63;;;;;;;21.09;46.30;102301.34;4209587;28;20040;-71
2022/11/11 01:52:00;;;;;;;4.45;2.50;;;;;;;21.10;46.13;102302.19;4215845;28;20105;-70
2022/11/11 01:54:09;;;;;;;4.03;2.50;;;;;;;20.66;46.01;102230.38;4214578;28;20870;-70
2022/11/11 01:56:11;;;;;;;4.13;2.88;;;;;;;21.13;45.83;102296.97;4215124;28;20125;-69
2022/11/11 01:58:16;;;;;;;8.02;3.28;;;;;;;20.62;46.30;102214.44;4215388;28;20052;-69
2022/11/11 02:00:18;;;;;;;3.33;2.53;;;;;;;21.11;45.89;102301.91;4217338;28;20078;-69
2022/11/11 02:02:25;;;;;;;4.70;2.60;;;;;;;21.11;45.92;102296.34;4213541;28;20043;-69
2022/11/11 02:07:05;;;;;;;5.28;2.90;;;;;;;21.10;46.24;102286.31;4205374;28;20093;-68
2022/11/11 02:09:08;;;;;;;6.15;3.47;;;;;;;21.13;46.13;102293.34;4214876;28;20040;-69
2022/11/11 02:14:34;;;;;;;5.68;3.28;;;;;;;21.12;46.32;102286.94;4215202;28;20081;-71
2022/11/11 02:16:03;;;;;;;6.78;3.90;;;;;;;21.14;45.96;102281.94;4225416;28;20097;-70
2022/11/11 02:18:05;;;;;;;8.43;4.45;;;;;;;21.14;46.16;102275.53;4210295;28;20048;-69
2022/11/11 02:20:08;;;;;;;9.75;5.45;;;;;;;21.05;46.13;102266.75;4214910;28;20058;-69
2022/11/11 02:22:30;;;;;;;10.55;6.25;;;;;;;21.10;46.13;102285.47;4212465;28;20425;-68
2022/11/11 02:24:34;;;;;;;17.92;9.52;;;;;;;20.97;46.28;102250.44;4208511;28;20145;-68
2022/11/11 02:26:37;;;;;;;18.17;9.43;;;;;;;21.13;46.13;102274.69;4213072;28;20459;-69
2022/11/11 02:28:40;;;;;;;15.98;7.93;;;;;;;21.13;46.24;102274.69;4216663;28;20474;-69
2022/11/11 02:30:41;;;;;;;16.25;7.45;;;;;;;20.50;45.92;102170.00;4214834;28;20116;-70
2022/11/11 02:32:45;;;;;;;15.40;6.32;;;;;;;21.13;45.93;102268.28;4213959;28;20040;-71
2022/11/11 02:34:47;;;;;;;14.93;6.50;;;;;;;21.13;46.51;102269.13;4215253;28;20086;-71
2022/11/11 02:36:48;;;;;;;13.77;6.43;;;;;;;21.10;46.03;102255.69;4214720;28;20040;-71
2022/11/11 02:38:50;;;;;;;11.50;5.43;;;;;;;20.96;46.27;102234.84;4212362;28;20105;-70
2022/11/11 02:43:22;;;;;;;6.93;4.50;;;;;;;21.06;46.36;102251.72;4213186;28;20090;-70
2022/11/11 02:45:23;;;;;;;6.88;4.00;;;;;;;21.14;46.15;102259.69;4214520;28;20032;-69
2022/11/11 02:47:26;;;;;;;8.05;4.53;;;;;;;21.01;46.09;102221.03;4213348;28;20525;-68
2022/11/11 02:49:27;;;;;;;9.05;4.68;;;;;;;21.14;46.39;102245.75;4214647;28;20422;-70
2022/11/11 02:51:28;;;;;;;7.57;3.80;;;;;;;21.14;46.37;102247.69;4214647;28;20452;-70
2022/11/11 02:53:29;;;;;;;9.43;3.92;;;;;;;21.08;46.26;102241.22;4213163;28;20120;-69
2022/11/11 02:55:33;;;;;;;6.78;3.60;;;;;;;21.15;46.26;102254.94;4227125;27;20089;-69
2022/11/11 02:57:35;;;;;;;6.53;3.42;;;;;;;21.14;46.57;102256.91;4212023;28;20109;-70
2022/11/11 02:59:39;;;;;;;7.10;3.58;;;;;;;21.08;46.22;102241.22;4211855;28;20036;-68
2022/11/11 03:01:40;;;;;;;6.55;3.55;;;;;;;21.14;46.32;102256.91;4215420;28;20097;-69
2022/11/11 03:03:44;;;;;;;6.65;3.75;;;;;;;21.14;46.21;102242.13;4213734;28;20437;-69
2022/11/11 03:05:46;;;;;;;7.10;3.83;;;;;;;20.98;46.29;102230.75;4216672;28;20028;-69
2022/11/11 03:07:49;;;;;;;11.52;4.18;;;;;;;20.96;46.18;102229.28;4213121;28;20264;-70
2022/11/11 03:09:51;;;;;;;11.60;3.40;;;;;;;21.17;46.21;102241.66;4212898;28;20101;-70
2022/11/11 03:11:55;;;;;;;8.55;3.88;;;;;;;21.10;46.08;102230.66;4214584;28;20085;-70
2022/11/11 03:13:58;;;;;;;13.23;3.65;;;;;;;21.06;46.37;102207.19;4213371;28;20036;-70
2022/11/11 03:15:59;;;;;;;7.60;3.40;;;;;;;21.17;46.42;102220.22;4205990;28;20048;-73
2022/11/11 03:18:00;;;;;;;7.60;3.80;;;;;;;21.08;46.70;102207.81;4197769;28;20114;-73
2022/11/11 03:22:22;;;;;;;6.63;2.83;;;;;;;21.15;46.46;102225.16;4199283;28;20541;-72
2022/11/11 03:24:23;;;;;;;9.40;3.42;;;;;;;21.15;46.58;102216.81;4213908;28;20040;-72
2022/11/11 03:26:24;;;;;;;11.93;3.97;;;;;;;21.17;46.48;102211.88;4213327;28;20036;-74
2022/11/11 03:28:26;;;;;;;7.28;3.45;;;;;;;21.16;46.57;102214.88;4213192;28;20455;-73
2022/11/11 03:30:27;;;;;;;7.85;3.53;;;;;;;21.15;46.52;102211.25;4213644;28;20036;-74
2022/11/11 03:32:31;;;;;;;41.05;5.50;;;;;;;21.14;46.54;102198.44;4213907;28;20035;-74
2022/11/11 03:34:32;;;;;;;14.82;4.00;;;;;;;21.15;46.36;102191.78;4214009;28;20044;-73
2022/11/11 03:38:14;;;;;;;17.67;4.28;;;;;;;21.18;46.74;102191.28;4213317;28;20043;-73
2022/11/11 03:38:55;;;;;;;13.75;3.85;;;;;;;21.00;46.72;102158.97;4213037;28;20090;-73
2022/11/11 03:40:57;;;;;;;14.45;3.60;;;;;;;21.20;46.81;102185.44;4214440;28;20044;-73
2022/11/11 03:43:01;;;;;;;12.30;3.15;;;;;;;21.18;46.89;102174.56;4214247;28;20044;-73
2022/11/11 03:45:02;;;;;;;11.48;3.45;;;;;;;21.10;46.62;102168.59;4214729;28;20040;-73
2022/11/11 03:47:04;;;;;;;10.27;3.40;;;;;;;21.17;46.72;102181.25;4214657;28;20392;-73
2022/11/11 03:49:05;;;;;;;10.57;3.35;;;;;;;21.06;46.94;102166.28;4213582;28;20040;-72
2022/11/11 03:51:06;;;;;;;8.75;3.83;;;;;;;21.17;46.78;102180.41;4210729;28;20515;-73
2022/11/11 03:53:07;;;;;;;10.23;3.42;;;;;;;21.15;46.68;102172.28;4207360;28;20460;-73
2022/11/11 03:55:09;;;;;;;6.35;2.92;;;;;;;21.09;46.80;102164.13;4197286;28;20045;-73
2022/11/11 03:59:30;;;;;;;10.63;3.70;;;;;;;21.23;46.58;102174.66;4218437;28;20089;-73
2022/11/11 04:10:50;;;;;;;13.18;3.55;;;;;;;21.23;47.05;102180.22;4217216;28;20086;-72
2022/11/11 04:17:34;;;;;;;12.98;4.20;;;;;;;21.23;47.22;102171.88;4214652;28;20425;-72
2022/11/11 04:21:55;;;;;;;12.93;3.70;;;;;;;21.24;47.01;102164.34;4216625;28;20070;-73
2022/11/11 04:23:56;;;;;;;11.80;3.50;;;;;;;21.21;46.87;102160.16;4216462;28;20065;-73
2022/11/11 04:26:00;;;;;;;15.82;4.30;;;;;;;21.20;47.30;102152.88;4200776;28;20033;-73
2022/11/11 04:30:21;;;;;;;10.63;4.22;;;;;;;21.04;47.15;102126.75;4216593;28;20073;-73
2022/11/11 04:32:34;;;;;;;10.23;3.33;;;;;;;21.22;47.44;102147.91;4216953;28;20093;-72
2022/11/11 04:34:35;;;;;;;10.32;3.58;;;;;;;21.19;47.49;102140.06;4216572;28;20097;-73
2022/11/11 04:36:36;;;;;;;7.55;3.13;;;;;;;21.22;47.35;102145.13;4212025;28;20437;-72
2022/11/11 04:41:03;;;;;;;8.43;3.05;;;;;;;21.23;47.60;102141.25;4213743;28;20121;-73
2022/11/11 04:43:04;;;;;;;8.00;3.47;;;;;;;20.96;47.28;102084.59;4214602;28;20028;-73
2022/11/11 04:45:27;;;;;;;8.52;3.30;;;;;;;21.22;47.52;102136.78;4216998;28;20040;-72
2022/11/11 04:47:28;;;;;;;8.60;3.42;;;;;;;21.12;47.38;102110.72;4221725;28;20032;-73
2022/11/11 04:49:30;;;;;;;11.15;3.47;;;;;;;21.23;47.58;102129.28;4223110;28;20028;-73
2022/11/11 04:53:59;;;;;;;9.80;4.07;;;;;;;21.17;47.60;102106.09;4215346;28;20097;-73
2022/11/11 04:58:23;;;;;;;9.25;3.45;;;;;;;21.25;47.38;102122.34;4215357;28;20100;-72
2022/11/11 05:00:27;;;;;;;6.32;2.90;;;;;;;21.17;47.49;102099.69;4215877;28;20113;-72
2022/11/11 05:04:50;;;;;;;9.52;3.63;;;;;;;21.26;47.72;102118.47;4216501;28;20077;-72
2022/11/11 05:09:11;;;;;;;10.43;3.65;;;;;;;21.30;47.39;102108.53;4212882;28;20102;-72
2022/11/11 05:11:13;;;;;;;12.68;3.47;;;;;;;21.12;47.46;102061.47;4216033;28;20028;-72
2022/11/11 05:22:46;;;;;;;11.93;3.42;;;;;;;21.45;47.16;102101.53;4208382;28;20092;-72
2022/11/11 05:25:29;;;;;;;7.40;3.20;;;;;;;21.48;47.45;102098.19;4216243;28;20039;-71
2022/11/11 05:27:20;;;;;;;11.27;3.40;;;;;;;21.50;48.10;102085.72;4212844;28;20097;-72
2022/11/11 05:29:22;;;;;;;8.40;3.72;;;;;;;21.50;48.67;102079.31;4215709;28;20048;-71
2022/11/11 05:31:23;;;;;;;9.18;3.67;;;;;;;21.50;48.60;102071.78;4215549;28;20097;-71
2022/11/11 05:33:25;;;;;;;7.38;3.17;;;;;;;21.48;47.92;102065.63;4215940;28;20040;-71
2022/11/11 05:35:28;;;;;;;7.55;3.10;;;;;;;21.50;48.30;102068.16;4200827;28;20040;-72
2022/11/11 05:37:30;;;;;;;9.50;3.13;;;;;;;21.49;48.76;102058.13;4198568;28;20075;-71
2022/11/11 05:39:32;;;;;;;9.32;3.20;;;;;;;21.29;48.76;102026.06;4198718;28;20036;-72
2022/11/11 05:41:33;;;;;;;10.25;3.50;;;;;;;21.53;48.81;102053.69;4199174;28;20553;-72
2022/11/11 05:43:34;;;;;;;9.32;3.40;;;;;;;21.53;48.88;102056.50;4198785;28;20036;-71
2022/11/11 05:45:35;;;;;;;10.63;3.35;;;;;;;21.54;48.59;102052.63;4203596;28;20101;-72
2022/11/11 05:47:37;;;;;;;8.63;3.17;;;;;;;21.53;48.87;102053.69;4214514;28;20373;-72
2022/11/11 05:49:38;;;;;;;10.13;3.50;;;;;;;21.51;49.08;102050.34;4213423;28;20047;-72
2022/11/11 05:51:41;;;;;;;7.78;3.08;;;;;;;21.56;48.95;102058.78;4210673;28;20077;-71
2022/11/11 05:53:43;;;;;;;7.57;3.13;;;;;;;21.57;49.00;102054.88;4215073;28;20044;-72
2022/11/11 05:55:44;;;;;;;5.97;3.05;;;;;;;21.58;48.59;102053.81;4213612;28;20044;-72
2022/11/11 05:57:48;;;;;;;8.07;3.20;;;;;;;21.58;48.85;102059.38;4202980;28;20090;-72
2022/11/11 05:59:49;;;;;;;7.72;3.20;;;;;;;21.60;48.97;102054.38;4212132;28;20482;-71
2022/11/11 06:01:53;;;;;;;11.93;2.85;;;;;;;21.60;48.95;102057.16;4215179;28;20040;-72
2022/11/11 06:04:01;;;;;;;7.47;2.97;;;;;;;21.42;48.77;102022.09;4214781;28;20032;-72
2022/11/11 06:06:03;;;;;;;7.28;3.05;;;;;;;21.61;48.80;102044.91;4211377;28;20074;-72
2022/11/11 06:08:04;;;;;;;8.68;3.33;;;;;;;21.60;48.89;102034.03;4205787;28;20460;-72
2022/11/11 06:13:00;;;;;;;6.68;3.00;;;;;;;21.64;49.01;102024.06;4215868;28;20077;-72
2022/11/11 06:14:48;;;;;;;7.88;3.30;;;;;;;21.65;49.17;102029.38;4204506;28;20027;-72
2022/11/11 06:16:50;;;;;;;7.53;2.92;;;;;;;21.65;48.28;102020.16;4197869;28;20102;-72
2022/11/11 06:18:51;;;;;;;5.32;2.78;;;;;;;21.65;48.78;102026.56;4206900;28;20044;-72
2022/11/11 06:20:54;;;;;;;6.65;2.78;;;;;;;21.65;48.80;102021.00;4214823;28;20094;-72
2022/11/11 06:22:55;;;;;;;7.93;3.35;;;;;;;21.17;48.63;101944.66;4214805;28;20078;-72
2022/11/11 06:26:11;;;;;;;4.63;2.67;;;;;;;21.60;48.83;102009.81;4214763;28;20376;-72
2022/11/11 06:27:18;;;;;;;7.70;3.50;;;;;;;21.62;48.78;102010.38;4214614;28;20062;-72
2022/11/11 06:29:22;;;;;;;8.85;3.42;;;;;;;21.63;49.06;102017.66;4215135;28;20536;-72
2022/11/11 06:31:25;;;;;;;7.28;3.13;;;;;;;21.66;49.11;102022.69;4214731;28;20040;-72
2022/11/11 06:33:27;;;;;;;9.90;3.28;;;;;;;21.64;49.18;102010.97;4214035;28;20442;-73
2022/11/11 06:35:28;;;;;;;6.35;3.00;;;;;;;21.67;48.79;102017.94;4214374;28;20040;-73
2022/11/11 06:37:29;;;;;;;8.68;2.95;;;;;;;21.67;49.04;102018.81;4212964;28;20086;-73
2022/11/11 06:39:30;;;;;;;6.35;2.60;;;;;;;21.68;48.69;102016.88;4214567;28;20077;-73
2022/11/11 06:41:32;;;;;;;6.63;2.75;;;;;;;21.69;49.09;102015.75;4214770;28;20050;-72
2022/11/11 06:43:33;;;;;;;9.40;3.13;;;;;;;21.65;48.87;102001.50;4214349;28;20036;-72
2022/11/11 06:45:38;;;;;;;6.13;2.83;;;;;;;21.67;48.94;102007.69;4214687;28;20036;-72
2022/11/11 06:47:41;;;;;;;;;;;;;;;21.68;48.97;102003.78;4214441;28;20052;-72
2022/11/11 06:49:42;;;;;;;6.63;2.80;;;;;;;21.76;48.68;101994.97;4214938;28;19912;-72
2022/11/11 06:51:43;;;;;;;6.03;2.75;;;;;;;21.71;48.81;102003.25;4214835;28;20039;-71
2022/11/11 06:53:45;;;;;;;7.38;2.53;;;;;;;21.74;48.72;102005.50;4214361;28;20044;-72
2022/11/11 06:55:46;;;;;;;8.38;2.97;;;;;;;21.57;48.93;101974.09;4214179;28;20036;-72
2022/11/11 06:57:51;;;;;;;7.80;2.92;;;;;;;21.72;48.79;102004.94;4214469;28;20094;-72
2022/11/11 06:59:52;;;;;;;5.67;2.57;;;;;;;21.71;48.95;101997.66;4214404;28;20097;-72
2022/11/11 07:01:56;;;;;;;8.32;2.95;;;;;;;21.62;49.10;101979.72;4214534;28;20264;-72
2022/11/11 07:03:57;;;;;;;8.10;3.17;;;;;;;21.72;48.87;101987.41;4214332;28;20482;-72
2022/11/11 07:06:03;;;;;;;8.15;2.90;;;;;;;21.58;49.00;101975.81;4214306;28;20061;-72
2022/11/11 07:08:09;;;;;;;8.40;2.33;;;;;;;21.69;49.17;101987.91;4213163;28;20576;-72
2022/11/11 07:10:11;;;;;;;5.75;2.50;;;;;;;21.68;49.08;101991.81;4214158;28;20039;-72
2022/11/11 07:12:13;;;;;;;6.25;2.65;;;;;;;21.69;49.16;101994.31;4214457;28;20043;-72
2022/11/11 07:14:14;;;;;;;7.30;2.75;;;;;;;21.66;48.87;101988.41;4214254;28;20048;-72
2022/11/11 07:16:15;;;;;;;7.50;2.92;;;;;;;21.67;49.25;101971.47;4212963;28;20093;-72
2022/11/11 07:18:17;;;;;;;7.88;3.33;;;;;;;21.66;49.19;101972.53;4214577;28;20078;-72
2022/11/11 07:20:18;;;;;;;6.22;2.40;;;;;;;21.64;49.46;101973.91;4214326;28;20125;-72
2022/11/11 07:22:20;;;;;;;7.25;2.92;;;;;;;21.64;49.08;101968.34;4214222;28;20161;-72
2022/11/11 07:24:21;;;;;;;5.35;3.05;;;;;;;21.65;49.16;101968.06;4213820;28;20483;-71
2022/11/11 07:26:22;;;;;;;5.53;3.10;;;;;;;21.64;48.97;101963.63;4214186;28;20077;-71
2022/11/11 07:28:24;;;;;;;6.00;2.95;;;;;;;21.63;49.24;101970.28;4213846;28;20086;-72
2022/11/11 07:30:28;;;;;;;6.60;2.92;;;;;;;21.64;48.96;101969.19;4215900;28;20433;-72
2022/11/11 07:32:33;;;;;;;5.00;2.90;;;;;;;21.55;49.04;101951.25;4217941;28;20429;-73
2022/11/11 07:34:34;;;;;;;9.15;3.15;;;;;;;21.66;48.88;101966.97;4217964;28;20044;-72
2022/11/11 07:36:35;;;;;;;5.65;2.55;;;;;;;21.69;49.07;101960.03;4217465;28;20035;-72
2022/11/11 07:38:36;;;;;;;6.85;3.05;;;;;;;21.67;49.13;101960.31;4217493;28;20044;-72
2022/11/11 07:40:38;;;;;;;7.28;2.70;;;;;;;21.68;48.84;101955.59;4217882;28;20036;-72
2022/11/11 07:42:40;;;;;;;5.03;2.60;;;;;;;21.67;49.02;101954.75;4216900;28;20040;-72
2022/11/11 07:44:45;;;;;;;4.55;2.63;;;;;;;21.62;49.38;101943.53;4217675;28;20047;-72
2022/11/11 07:46:48;;;;;;;6.10;3.10;;;;;;;21.66;49.14;101949.41;4217126;28;20040;-73
2022/11/11 07:48:50;;;;;;;5.72;2.67;;;;;;;21.66;49.11;101953.03;4217515;28;20471;-72
2022/11/11 07:50:53;;;;;;;5.28;2.80;;;;;;;21.65;49.41;101948.56;4217470;28;20101;-72
2022/11/11 07:52:54;;;;;;;7.53;3.10;;;;;;;21.65;49.16;101951.38;4217460;28;20028;-72
2022/11/11 07:54:59;;;;;;;7.10;2.40;;;;;;;21.65;48.95;101948.56;4217345;28;20032;-72
2022/11/11 07:57:03;;;;;;;5.65;2.70;;;;;;;21.64;49.51;101941.34;4217235;28;20074;-73
2022/11/11 07:59:04;;;;;;;5.97;2.93;;;;;;;21.61;49.53;101930.69;4217121;28;20483;-72
2022/11/11 08:01:08;;;;;;;6.53;2.72;;;;;;;21.65;49.12;101934.66;4217098;28;20325;-72
2022/11/11 08:03:12;;;;;;;5.00;2.60;;;;;;;21.66;48.91;101922.41;4200580;28;20048;-72
2022/11/11 08:05:14;;;;;;;6.43;2.83;;;;;;;21.67;48.80;101918.53;4214850;28;20093;-73
2022/11/11 08:07:18;;;;;;;4.30;2.35;;;;;;;21.66;49.18;101921.56;4217295;28;20093;-73
2022/11/11 08:09:19;;;;;;;10.55;3.10;;;;;;;21.66;48.89;101904.84;4216925;28;20040;-73
2022/11/11 08:13:43;;;;;;;5.65;2.78;;;;;;;21.49;48.83;101866.81;4217206;28;20123;-72
2022/11/11 08:15:45;;;;;;;5.43;2.80;;;;;;;21.71;49.10;101902.13;4216530;28;20505;-73
2022/11/11 08:17:46;;;;;;;6.00;2.60;;;;;;;21.71;49.02;101908.53;4216753;28;20425;-72
2022/11/11 08:19:47;;;;;;;5.97;2.70;;;;;;;21.67;48.93;101895.38;4214643;28;20392;-72
2022/11/11 08:21:57;;;;;;;5.10;2.42;;;;;;;21.56;48.73;101877.72;4215350;28;20044;-72
2022/11/11 08:23:58;;;;;;;6.43;2.90;;;;;;;21.71;48.99;101902.94;4213304;28;20028;-72
2022/11/11 08:26:01;;;;;;;6.50;2.60;;;;;;;21.71;48.83;101902.13;4214102;28;20069;-72
2022/11/11 08:28:13;;;;;;;4.90;3.00;;;;;;;21.69;49.23;101894.03;4215705;28;20109;-71
2022/11/11 08:30:18;;;;;;;8.05;3.08;;;;;;;21.62;48.82;101879.47;4216759;28;20180;-72
2022/11/11 08:32:22;;;;;;;6.47;2.43;;;;;;;21.70;49.43;101879.00;4216664;28;20097;-72
2022/11/11 08:34:23;;;;;;;6.32;2.75;;;;;;;21.70;49.16;101881.78;4215406;28;20702;-71
2022/11/11 08:36:27;;;;;;;6.05;2.75;;;;;;;21.69;49.24;101877.31;4216582;28;20541;-72
2022/11/11 08:38:29;;;;;;;7.35;2.70;;;;;;;21.69;49.17;101880.09;4215427;28;20094;-72
2022/11/11 08:40:36;;;;;;;5.60;2.40;;;;;;;21.61;49.59;101866.66;4215312;28;20097;-72
2022/11/11 08:42:37;;;;;;;7.70;2.78;;;;;;;21.66;49.16;101866.69;4215579;28;20036;-72
2022/11/11 08:44:38;;;;;;;5.60;2.78;;;;;;;21.65;49.49;101859.44;4215170;28;20441;-72
2022/11/11 08:46:42;;;;;;;4.50;2.30;;;;;;;21.65;49.25;101848.31;4215692;28;20068;-72
2022/11/11 08:48:47;;;;;;;12.55;3.33;;;;;;;21.65;49.21;101859.44;4216609;28;20144;-72
2022/11/11 08:50:51;;;;;;;7.05;2.92;;;;;;;21.66;49.26;101849.13;4210072;28;20036;-72
2022/11/11 08:52:53;;;;;;;4.45;2.08;;;;;;;21.52;48.96;101832.84;4216352;28;20536;-72
2022/11/11 08:54:54;;;;;;;4.30;2.35;;;;;;;21.65;49.38;101842.72;4199833;28;20114;-72
2022/11/11 08:56:55;;;;;;;9.52;2.50;;;;;;;21.62;48.97;101843.25;4210651;28;20109;-73
2022/11/11 08:58:57;;;;;;;4.80;2.20;;;;;;;21.64;49.42;101856.94;4215275;28;20150;-73
2022/11/11 09:01:02;;;;;;;5.60;2.45;;;;;;;21.61;49.33;101849.94;4214973;28;20097;-72
2022/11/11 09:03:10;;;;;;;6.35;2.63;;;;;;;21.60;49.67;101845.47;4215120;28;20098;-72
2022/11/11 09:05:11;;;;;;;5.60;2.85;;;;;;;21.60;49.80;101851.03;4216206;28;20070;-72
2022/11/11 09:07:12;;;;;;;4.95;2.47;;;;;;;21.55;49.64;101842.63;4212378;28;20036;-72
2022/11/11 09:09:13;;;;;;;6.85;2.45;;;;;;;21.50;49.58;101834.25;4215027;28;20429;-73
2022/11/11 09:11:15;;;;;;;7.22;2.60;;;;;;;21.50;49.68;101840.66;4215108;28;20032;-72
2022/11/11 09:13:16;;;;;;;5.88;2.30;;;;;;;21.55;49.81;101848.22;4214814;28;20540;-72
2022/11/11 09:15:20;;;;;;;5.43;2.50;;;;;;;21.53;49.52;101845.69;4215137;28;20089;-72
2022/11/11 09:17:22;;;;;;;5.97;2.50;;;;;;;21.53;49.73;101839.25;4213679;28;20044;-72
2022/11/11 09:19:29;;;;;;;5.78;2.47;;;;;;;21.46;49.70;101827.50;4214762;28;20040;-71
2022/11/11 09:21:30;;;;;;;4.57;2.50;;;;;;;21.45;49.71;101826.69;4214880;28;20561;-73
2022/11/11 09:23:32;;;;;;;6.85;2.78;;;;;;;21.39;49.31;101816.56;4214940;28;20044;-73
2022/11/11 09:25:33;;;;;;;6.93;2.88;;;;;;;21.54;49.54;101840.97;4214261;28;20035;-73
2022/11/11 09:27:34;;;;;;;5.45;2.92;;;;;;;21.54;49.23;101833.44;4214577;28;20036;-72
2022/11/11 09:29:36;;;;;;;6.50;2.58;;;;;;;21.55;49.39;101842.63;4214627;28;20040;-73
2022/11/11 09:31:41;;;;;;;4.38;2.28;;;;;;;21.30;49.52;101796.72;4213618;28;20078;-73
2022/11/11 09:33:42;;;;;;;5.68;2.30;;;;;;;21.54;49.97;101832.59;4199614;28;20040;-73
2022/11/11 09:35:43;;;;;;;6.03;2.30;;;;;;;21.49;49.81;101821.44;4215446;28;20102;-73
2022/11/11 09:37:59;;;;;;;4.60;2.25;;;;;;;21.47;49.76;101827.25;4213621;28;20040;-72
2022/11/11 09:40:00;;;;;;;4.65;2.30;;;;;;;21.52;49.52;101823.66;4214273;28;20433;-72
2022/11/11 09:42:04;;;;;;;5.18;2.45;;;;;;;21.53;49.57;101828.13;4214705;28;20040;-71
2022/11/11 09:44:42;;;;;;;4.93;2.40;;;;;;;21.51;49.95;101824.78;4214439;28;20471;-72
2022/11/11 09:46:55;;;;;;;4.43;2.30;;;;;;;21.55;49.50;101820.34;4210946;28;20044;-72
2022/11/11 09:49:20;;;;;;;6.72;2.67;;;;;;;21.52;49.71;101815.31;4214570;28;20044;-73
2022/11/11 09:51:34;;;;;;;5.55;2.78;;;;;;;21.37;49.46;101784.53;4214443;28;20056;-72
2022/11/11 09:53:42;;;;;;;4.07;2.30;;;;;;;21.53;49.00;101805.84;4213432;28;20025;-73
2022/11/11 09:56:16;;;;;;;5.57;2.38;;;;;;;21.52;49.30;101802.22;4198692;28;20094;-73
2022/11/11 09:58:29;;;;;;;4.25;2.35;;;;;;;21.54;49.07;101804.75;4194403;28;20044;-73
2022/11/11 10:00:36;;;;;;;4.55;2.63;;;;;;;21.40;49.59;101773.72;4213290;28;20052;-73
2022/11/11 10:02:45;;;;;;;6.05;2.25;;;;;;;21.52;49.32;101793.03;4213303;28;20044;-72
2022/11/11 10:04:58;;;;;;;5.10;2.22;;;;;;;21.53;49.87;101800.28;4213899;28;20040;-72
2022/11/11 10:07:11;;;;;;;4.70;2.42;;;;;;;21.52;49.38;101796.66;4214790;28;20036;-72
2022/11/11 10:09:24;;;;;;;4.63;2.67;;;;;;;21.52;49.49;101795.81;4215558;28;20044;-72
2022/11/11 10:11:45;;;;;;;4.45;2.17;;;;;;;21.49;49.83;101788.84;4214981;28;20089;-72
2022/11/11 10:13:47;;;;;;;7.57;2.60;;;;;;;21.50;49.88;101784.13;4215054;28;20183;-72
2022/11/11 10:15:54;;;;;;;4.13;2.38;;;;;;;21.51;49.53;101783.00;4214849;28;20048;-73
2022/11/11 10:18:09;;;;;;;6.80;2.35;;;;;;;21.41;49.76;101760.63;4214854;28;20540;-72
2022/11/11 10:20:23;;;;;;;4.82;3.08;;;;;;;21.50;49.96;101762.66;4214861;28;20043;-73
2022/11/11 10:22:34;;;;;;;5.82;2.65;;;;;;;21.50;49.93;101770.19;4216879;28;20036;-72
2022/11/11 10:24:41;;;;;;;5.53;2.13;;;;;;;21.50;50.00;101764.63;4214904;28;20109;-72
2022/11/11 10:26:46;;;;;;;5.13;2.35;;;;;;;21.31;49.89;101731.59;4214928;28;20040;-73
2022/11/11 10:28:50;;;;;;;4.38;2.00;;;;;;;21.51;49.97;101769.06;4214827;28;20082;-73
2022/11/11 10:30:51;;;;;;;5.07;2.70;;;;;;;21.51;50.23;101763.50;4214807;28;20043;-73
2022/11/11 10:33:02;;;;;;;6.53;2.38;;;;;;;21.48;50.26;101752.88;4214793;28;20043;-73
2022/11/11 10:35:41;;;;;;;4.07;2.40;;;;;;;20.65;49.79;101616.00;4214743;28;20032;-73
2022/11/11 10:37:51;;;;;;;4.60;2.38;;;;;;;21.51;49.85;101752.38;4213508;28;20039;-73
2022/11/11 10:40:02;;;;;;;3.90;2.55;;;;;;;21.50;49.53;101761.84;4214348;28;20433;-73
2022/11/11 10:42:07;;;;;;;6.07;1.85;;;;;;;21.52;49.28;101759.59;4214636;28;20498;-73
2022/11/11 10:44:24;;;;;;;5.00;2.33;;;;;;;21.50;49.62;101756.25;4214650;28;20113;-73
2022/11/11 10:47:11;;;;;;;6.45;2.45;;;;;;;21.40;49.80;101742.25;4214744;28;20028;-73
2022/11/11 10:49:20;;;;;;;4.30;2.35;;;;;;;21.37;49.86;101724.13;4206444;28;20043;-73
2022/11/11 10:51:25;;;;;;;7.85;2.78;;;;;;;21.51;50.07;101741.22;4214313;28;20032;-71
2022/11/11 10:56:22;;;;;;;5.28;2.13;;;;;;;21.51;49.61;101742.06;4212995;28;20036;-72